createdAt,value
2024-03-03T00:00:29.617Z,7.51
2024-03-03T00:02:01.060Z,7.53
2024-03-03T00:03:36.378Z,7.53
2024-03-03T00:05:08.657Z,7.53
2024-03-03T00:06:40.156Z,7.51
2024-03-03T00:08:11.548Z,7.51
2024-03-03T00:09:43.003Z,7.50
2024-03-03T00:11:14.649Z,7.45
2024-03-03T00:12:46.084Z,7.42
2024-03-03T00:14:17.589Z,7.42
2024-03-03T00:15:49.597Z,7.41
2024-03-03T00:17:21.020Z,7.36
2024-03-03T00:18:52.421Z,7.30
2024-03-03T00:20:23.820Z,7.22
2024-03-03T00:21:55.366Z,7.15
2024-03-03T00:23:26.789Z,7.14
2024-03-03T00:24:58.285Z,7.08
2024-03-03T00:26:32.124Z,6.98
2024-03-03T00:28:03.644Z,6.90
2024-03-03T00:29:35.138Z,6.83
2024-03-03T00:31:06.642Z,6.76
2024-03-03T00:32:38.061Z,6.66
2024-03-03T00:34:09.500Z,6.57
2024-03-03T00:35:41.006Z,6.50
2024-03-03T00:37:13.243Z,6.41
2024-03-03T00:38:44.643Z,6.35
2024-03-03T00:40:17.129Z,6.28
2024-03-03T00:41:48.589Z,6.24
2024-03-03T00:43:20.084Z,6.19
2024-03-03T00:44:51.477Z,6.10
2024-03-03T00:46:23.065Z,6.04
2024-03-03T00:47:54.562Z,5.99
2024-03-03T00:49:26.165Z,5.91
2024-03-03T00:50:57.610Z,5.89
2024-03-03T00:52:29.453Z,5.86
2024-03-03T00:54:01.123Z,5.83
2024-03-03T00:55:32.596Z,5.78
2024-03-03T00:57:05.072Z,5.75
2024-03-03T00:58:37.047Z,5.70
2024-03-03T01:00:10.127Z,5.68
2024-03-03T01:01:41.563Z,5.63
2024-03-03T01:03:13.159Z,5.57
2024-03-03T01:04:44.690Z,5.56
2024-03-03T01:06:16.075Z,5.55
2024-03-03T01:07:47.539Z,5.65
2024-03-03T01:09:19.288Z,5.68
2024-03-03T01:10:50.728Z,5.73
2024-03-03T01:12:22.260Z,5.78
2024-03-03T01:13:53.823Z,5.79
2024-03-03T01:15:25.359Z,5.79
2024-03-03T01:16:56.788Z,5.74
2024-03-03T01:18:29.618Z,5.67
2024-03-03T01:20:01.422Z,5.63
2024-03-03T01:21:33.736Z,5.63
2024-03-03T01:23:06.154Z,5.69
2024-03-03T01:24:38.566Z,5.70
2024-03-03T01:26:10.129Z,5.73
2024-03-03T01:27:41.551Z,5.83
2024-03-03T01:29:12.997Z,5.89
2024-03-03T01:30:44.559Z,5.95
2024-03-03T01:32:15.993Z,6.01
2024-03-03T01:33:47.420Z,6.06
2024-03-03T01:35:18.963Z,6.12
2024-03-03T01:36:50.415Z,6.13
2024-03-03T01:38:21.921Z,6.05
2024-03-03T01:39:54.505Z,6.00
2024-03-03T01:41:26.062Z,6.03
2024-03-03T01:42:58.006Z,6.08
2024-03-03T01:44:29.477Z,6.05
2024-03-03T01:46:00.990Z,6.00
2024-03-03T01:47:33.003Z,6.06
2024-03-03T01:49:05.545Z,6.11
2024-03-03T01:50:38.333Z,6.24
2024-03-03T01:52:12.395Z,6.32
2024-03-03T01:53:51.851Z,6.43
2024-03-03T01:55:24.369Z,6.51
2024-03-03T01:56:56.737Z,6.57
2024-03-03T01:58:30.187Z,6.61
2024-03-03T02:00:05.656Z,6.60
2024-03-03T02:01:38.381Z,6.62
2024-03-03T02:03:10.599Z,6.62
2024-03-03T02:04:42.688Z,6.67
2024-03-03T02:06:18.308Z,6.70
2024-03-03T02:07:50.863Z,6.76
2024-03-03T02:09:22.774Z,6.80
2024-03-03T02:10:54.289Z,6.83
2024-03-03T02:12:26.777Z,6.87
2024-03-03T02:13:58.863Z,6.89
2024-03-03T02:15:30.434Z,6.92
2024-03-03T02:17:02.030Z,6.93
2024-03-03T02:18:33.449Z,6.94
2024-03-03T02:20:06.001Z,6.96
2024-03-03T02:21:37.504Z,6.98
2024-03-03T02:23:10.855Z,7.01
2024-03-03T02:24:42.790Z,7.03
2024-03-03T02:26:14.504Z,7.05
2024-03-03T02:27:46.193Z,7.05
2024-03-03T02:29:18.488Z,7.06
2024-03-03T02:30:51.324Z,7.07
2024-03-03T02:32:22.871Z,7.08
2024-03-03T02:33:54.660Z,7.10
2024-03-03T02:35:26.063Z,7.11
2024-03-03T02:36:57.753Z,7.13
2024-03-03T02:38:29.165Z,7.14
2024-03-03T02:40:00.696Z,7.14
2024-03-03T02:41:32.366Z,7.14
2024-03-03T02:43:04.705Z,7.13
2024-03-03T02:44:36.116Z,7.15
2024-03-03T02:46:07.756Z,7.12
2024-03-03T02:47:40.082Z,7.11
2024-03-03T02:49:11.603Z,7.11
2024-03-03T02:50:43.168Z,7.11
2024-03-03T02:52:14.698Z,7.12
2024-03-03T02:53:46.288Z,7.11
2024-03-03T02:55:17.734Z,7.12
2024-03-03T02:56:50.154Z,7.11
2024-03-03T02:58:21.621Z,7.10
2024-03-03T02:59:53.353Z,7.12
2024-03-03T03:01:24.901Z,7.11
2024-03-03T03:02:56.332Z,7.12
2024-03-03T03:04:27.794Z,7.12
2024-03-03T03:05:59.642Z,7.11
2024-03-03T03:07:31.218Z,7.10
2024-03-03T03:09:03.132Z,7.10
2024-03-03T03:10:34.534Z,7.10
2024-03-03T03:12:06.160Z,7.10
2024-03-03T03:13:40.285Z,7.08
2024-03-03T03:15:12.773Z,7.03
2024-03-03T03:16:44.216Z,6.99
2024-03-03T03:18:15.784Z,7.01
2024-03-03T03:19:47.377Z,7.02
2024-03-03T03:21:20.862Z,7.06
2024-03-03T03:22:52.238Z,7.06
2024-03-03T03:24:24.553Z,7.09
2024-03-03T03:25:56.110Z,7.11
2024-03-03T03:27:27.548Z,7.13
2024-03-03T03:28:58.979Z,7.12
2024-03-03T03:30:30.590Z,7.11
2024-03-03T03:32:02.146Z,7.06
2024-03-03T03:33:33.628Z,7.06
2024-03-03T03:35:05.744Z,7.07
2024-03-03T03:36:37.372Z,7.07
2024-03-03T03:38:08.923Z,7.03
2024-03-03T03:39:41.033Z,7.02
2024-03-03T03:41:12.769Z,7.05
2024-03-03T03:42:44.360Z,7.06
2024-03-03T03:44:19.985Z,7.08
2024-03-03T03:45:53.500Z,7.09
2024-03-03T03:47:25.092Z,7.08
2024-03-03T03:48:56.718Z,7.08
2024-03-03T03:50:28.912Z,7.09
2024-03-03T03:52:04.977Z,7.08
2024-03-03T03:53:36.690Z,7.04
2024-03-03T03:55:08.763Z,7.04
2024-03-03T03:56:40.383Z,7.01
2024-03-03T03:58:12.215Z,6.99
2024-03-03T03:59:43.622Z,6.96
2024-03-03T04:01:20.566Z,6.87
2024-03-03T04:02:52.088Z,6.75
2024-03-03T04:04:23.538Z,6.69
2024-03-03T04:05:55.288Z,6.63
2024-03-03T04:07:26.871Z,6.56
2024-03-03T04:08:58.371Z,6.47
2024-03-03T04:10:29.760Z,6.37
2024-03-03T04:12:01.274Z,6.33
2024-03-03T04:13:32.810Z,6.29
2024-03-03T04:15:05.035Z,6.22
2024-03-03T04:16:36.436Z,6.16
2024-03-03T04:18:08.037Z,6.15
2024-03-03T04:19:40.303Z,6.18
2024-03-03T04:21:11.788Z,6.20
2024-03-03T04:22:43.199Z,6.17
2024-03-03T04:24:15.219Z,6.14
2024-03-03T04:25:46.830Z,6.23
2024-03-03T04:27:18.265Z,6.32
2024-03-03T04:28:49.870Z,6.33
2024-03-03T04:30:21.300Z,6.33
2024-03-03T04:31:54.636Z,6.38
2024-03-03T04:33:26.027Z,6.32
2024-03-03T04:35:01.163Z,6.30
2024-03-03T04:36:32.560Z,6.30
2024-03-03T04:38:04.116Z,6.29
2024-03-03T04:39:36.510Z,6.30
2024-03-03T04:41:18.539Z,6.33
2024-03-03T04:42:50.042Z,6.33
2024-03-03T04:44:21.454Z,6.43
2024-03-03T04:45:54.681Z,6.47
2024-03-03T04:47:27.597Z,6.51
2024-03-03T04:48:59.114Z,6.53
2024-03-03T04:50:30.578Z,6.55
2024-03-03T04:52:02.188Z,6.60
2024-03-03T04:53:34.490Z,6.64
2024-03-03T04:55:07.044Z,6.66
2024-03-03T04:56:38.528Z,6.70
2024-03-03T04:58:09.987Z,6.73
2024-03-03T04:59:41.539Z,6.76
2024-03-03T05:01:13.056Z,6.76
2024-03-03T05:02:44.913Z,6.78
2024-03-03T05:04:17.290Z,6.81
2024-03-03T05:05:48.923Z,6.81
2024-03-03T05:07:20.467Z,6.81
2024-03-03T05:08:51.902Z,6.83
2024-03-03T05:10:23.920Z,6.85
2024-03-03T05:11:55.371Z,6.88
2024-03-03T05:13:26.807Z,6.88
2024-03-03T05:14:58.320Z,6.90
2024-03-03T05:16:30.745Z,6.92
2024-03-03T05:18:02.186Z,6.93
2024-03-03T05:19:33.611Z,6.90
2024-03-03T05:21:05.497Z,6.87
2024-03-03T05:22:38.098Z,6.85
2024-03-03T05:24:10.642Z,6.82
2024-03-03T05:25:42.545Z,6.78
2024-03-03T05:27:13.928Z,6.78
2024-03-03T05:28:47.713Z,6.73
2024-03-03T05:30:19.275Z,6.68
2024-03-03T05:31:50.881Z,6.60
2024-03-03T05:33:22.409Z,6.58
2024-03-03T05:34:53.811Z,6.50
2024-03-03T05:36:25.196Z,6.46
2024-03-03T05:37:56.591Z,6.45
2024-03-03T05:39:28.451Z,6.44
2024-03-03T05:41:00.097Z,6.41
2024-03-03T05:42:31.477Z,6.41
2024-03-03T05:44:03.878Z,6.41
2024-03-03T05:45:35.490Z,6.38
2024-03-03T05:47:06.955Z,6.36
2024-03-03T05:48:38.893Z,6.32
2024-03-03T05:50:10.916Z,6.27
2024-03-03T05:51:42.608Z,6.21
2024-03-03T05:53:14.020Z,6.19
2024-03-03T05:54:45.440Z,6.12
2024-03-03T05:56:17.061Z,6.09
2024-03-03T05:57:48.790Z,6.05
2024-03-03T05:59:20.837Z,6.01
2024-03-03T06:00:52.445Z,5.94
2024-03-03T06:02:23.967Z,5.89
2024-03-03T06:03:55.368Z,5.87
2024-03-03T06:05:26.765Z,5.83
2024-03-03T06:06:58.261Z,5.78
2024-03-03T06:08:30.004Z,5.73
2024-03-03T06:10:01.488Z,5.66
2024-03-03T06:11:33.029Z,5.65
2024-03-03T06:13:04.823Z,5.69
2024-03-03T06:14:36.388Z,5.67
2024-03-03T06:16:07.893Z,5.65
2024-03-03T06:17:40.016Z,5.65
2024-03-03T06:19:11.608Z,5.63
2024-03-03T06:20:43.434Z,5.60
2024-03-03T06:22:14.823Z,5.57
2024-03-03T06:23:46.264Z,5.57
2024-03-03T06:25:17.881Z,5.60
2024-03-03T06:26:49.497Z,5.59
2024-03-03T06:28:21.105Z,5.66
2024-03-03T06:29:52.722Z,5.74
2024-03-03T06:31:24.186Z,5.81
2024-03-03T06:32:55.718Z,5.89
2024-03-03T06:34:28.499Z,6.01
2024-03-03T06:35:59.909Z,6.13
2024-03-03T06:37:32.589Z,6.24
2024-03-03T06:39:06.746Z,6.35
2024-03-03T06:40:38.294Z,6.43
2024-03-03T06:42:09.688Z,6.54
2024-03-03T06:43:45.213Z,6.63
2024-03-03T06:45:16.614Z,6.75
2024-03-03T06:46:48.018Z,6.86
2024-03-03T06:48:19.673Z,6.94
2024-03-03T06:49:53.429Z,7.02
2024-03-03T06:51:25.057Z,7.09
2024-03-03T06:52:56.464Z,7.15
2024-03-03T06:54:27.894Z,7.21
2024-03-03T06:55:59.426Z,7.26
2024-03-03T06:57:31.007Z,7.32
2024-03-03T06:59:02.639Z,7.37
2024-03-03T07:00:35.361Z,7.41
2024-03-03T07:02:07.531Z,7.45
2024-03-03T07:04:09.515Z,7.49
2024-03-03T07:05:41.101Z,7.52
2024-03-03T07:07:13.416Z,7.59
2024-03-03T07:08:44.948Z,7.62
2024-03-03T07:10:16.569Z,7.68
2024-03-03T07:11:47.992Z,7.74
2024-03-03T07:13:19.426Z,7.78
2024-03-03T07:14:50.983Z,7.84
2024-03-03T07:16:22.435Z,7.88
2024-03-03T07:17:54.079Z,7.94
2024-03-03T07:19:25.620Z,7.97
2024-03-03T07:20:57.019Z,8.02
2024-03-03T07:22:32.394Z,8.07
2024-03-03T07:24:04.921Z,8.10
2024-03-03T07:25:36.447Z,8.12
2024-03-03T07:27:09.180Z,8.19
2024-03-03T07:28:40.716Z,8.24
2024-03-03T07:30:12.717Z,8.28
2024-03-03T07:31:44.129Z,8.31
2024-03-03T07:33:15.640Z,8.36
2024-03-03T07:34:49.640Z,8.40
2024-03-03T07:36:21.537Z,8.42
2024-03-03T07:37:52.953Z,8.46
2024-03-03T07:39:24.464Z,8.49
2024-03-03T07:40:56.769Z,8.52
2024-03-03T07:42:28.189Z,8.56
2024-03-03T07:43:59.600Z,8.60
2024-03-03T07:45:31.200Z,8.63
2024-03-03T07:47:03.821Z,8.65
2024-03-03T07:48:35.221Z,8.67
2024-03-03T07:50:07.516Z,8.70
2024-03-03T07:51:39.022Z,8.75
2024-03-03T07:53:11.523Z,8.77
2024-03-03T07:54:43.028Z,8.82
2024-03-03T07:56:14.575Z,8.85
2024-03-03T07:57:46.237Z,8.91
2024-03-03T07:59:17.693Z,8.94
2024-03-03T08:00:49.223Z,8.95
2024-03-03T08:02:20.844Z,8.98
2024-03-03T08:03:52.355Z,9.05
2024-03-03T08:05:23.766Z,9.10
2024-03-03T08:06:55.942Z,9.16
2024-03-03T08:08:27.327Z,9.19
2024-03-03T08:09:58.762Z,9.25
2024-03-03T08:11:32.054Z,9.28
2024-03-03T08:13:04.242Z,9.33
2024-03-03T08:14:35.659Z,9.36
2024-03-03T08:16:08.112Z,9.37
2024-03-03T08:17:39.725Z,9.38
2024-03-03T08:19:11.200Z,9.37
2024-03-03T08:20:42.678Z,9.38
2024-03-03T08:22:14.136Z,9.43
2024-03-03T08:23:45.539Z,9.45
2024-03-03T08:25:19.697Z,9.48
2024-03-03T08:26:51.228Z,9.53
2024-03-03T08:28:22.716Z,9.58
2024-03-03T08:29:54.190Z,9.60
2024-03-03T08:31:25.702Z,9.63
2024-03-03T08:32:57.181Z,9.62
2024-03-03T08:34:28.706Z,9.65
2024-03-03T08:36:00.131Z,9.65
2024-03-03T08:37:34.421Z,9.69
2024-03-03T08:39:07.921Z,9.74
2024-03-03T08:40:39.321Z,9.78
2024-03-03T08:42:10.712Z,9.82
2024-03-03T08:43:42.120Z,9.85
2024-03-03T08:45:14.476Z,9.85
2024-03-03T08:46:46.879Z,9.88
2024-03-03T08:48:19.038Z,9.93
2024-03-03T08:49:50.501Z,9.93
2024-03-03T08:51:22.747Z,9.96
2024-03-03T08:52:54.193Z,10.03
2024-03-03T08:54:25.654Z,10.06
2024-03-03T08:55:57.158Z,10.04
2024-03-03T08:57:28.706Z,10.07
2024-03-03T08:59:00.151Z,10.13
2024-03-03T09:00:31.572Z,10.19
2024-03-03T09:02:03.355Z,10.26
2024-03-03T09:03:36.121Z,10.27
2024-03-03T09:05:08.667Z,10.28
2024-03-03T09:06:40.115Z,10.35
2024-03-03T09:08:11.703Z,10.36
2024-03-03T09:09:45.121Z,10.39
2024-03-03T09:11:18.128Z,10.48
2024-03-03T09:12:49.592Z,10.55
2024-03-03T09:14:21.109Z,10.57
2024-03-03T09:15:52.672Z,10.59
2024-03-03T09:17:24.197Z,10.62
2024-03-03T09:18:55.896Z,10.67
2024-03-03T09:20:27.449Z,10.72
2024-03-03T09:21:58.901Z,10.79
2024-03-03T09:23:30.322Z,10.78
2024-03-03T09:25:01.753Z,10.82
2024-03-03T09:26:33.335Z,10.87
2024-03-03T09:28:05.038Z,10.90
2024-03-03T09:29:37.056Z,10.90
2024-03-03T09:31:08.733Z,10.98
2024-03-03T09:32:40.269Z,11.09
2024-03-03T09:34:11.813Z,11.18
2024-03-03T09:35:43.291Z,11.25
2024-03-03T09:37:14.893Z,11.30
2024-03-03T09:38:46.750Z,11.33
2024-03-03T09:40:18.599Z,11.38
2024-03-03T09:41:56.707Z,11.45
2024-03-03T09:43:29.726Z,11.42
2024-03-03T09:45:07.889Z,11.52
2024-03-03T09:46:41.284Z,11.60
2024-03-03T09:48:14.046Z,11.67
2024-03-03T09:49:45.990Z,11.72
2024-03-03T09:51:18.911Z,11.77
2024-03-03T09:52:53.791Z,11.82
2024-03-03T09:54:26.126Z,11.83
2024-03-03T09:55:58.372Z,11.81
2024-03-03T09:57:33.919Z,11.77
2024-03-03T09:59:06.432Z,11.85
2024-03-03T10:00:37.977Z,11.91
2024-03-03T10:02:16.513Z,11.95
2024-03-03T10:03:49.166Z,12.01
2024-03-03T10:05:22.813Z,12.08
2024-03-03T10:06:56.729Z,12.16
2024-03-03T10:08:28.569Z,12.14
2024-03-03T10:10:12.593Z,12.05
2024-03-03T10:11:45.114Z,12.05
2024-03-03T10:13:18.841Z,12.14
2024-03-03T10:14:54.440Z,12.24
2024-03-03T10:16:29.967Z,12.26
2024-03-03T10:18:04.240Z,12.26
2024-03-03T10:19:35.894Z,12.13
2024-03-03T10:21:09.053Z,12.15
2024-03-03T10:22:42.208Z,12.24
2024-03-03T10:24:27.744Z,12.35
2024-03-03T10:25:59.354Z,12.35
2024-03-03T10:27:30.751Z,12.40
2024-03-03T10:29:05.861Z,12.32
2024-03-03T10:30:37.379Z,12.32
2024-03-03T10:32:10.769Z,12.39
2024-03-03T10:33:55.934Z,12.49
2024-03-03T10:35:27.794Z,12.54
2024-03-03T10:37:03.797Z,12.58
2024-03-03T10:38:35.390Z,12.51
2024-03-03T10:40:12.314Z,12.50
2024-03-03T10:41:43.945Z,12.54
2024-03-03T10:43:15.597Z,12.51
2024-03-03T10:44:47.200Z,12.52
2024-03-03T10:46:20.435Z,12.54
2024-03-03T10:47:52.362Z,12.50
2024-03-03T10:49:26.517Z,12.53
2024-03-03T10:50:58.755Z,12.55
2024-03-03T10:52:31.261Z,12.51
2024-03-03T10:54:03.126Z,12.54
2024-03-03T10:55:36.330Z,12.52
2024-03-03T10:57:09.899Z,12.45
2024-03-03T10:58:43.317Z,12.49
2024-03-03T11:00:17.306Z,12.45
2024-03-03T11:01:50.949Z,12.45
2024-03-03T11:03:24.788Z,12.44
2024-03-03T11:04:56.767Z,12.49
2024-03-03T11:06:28.442Z,12.53
2024-03-03T11:08:01.146Z,12.49
2024-03-03T11:09:34.528Z,12.43
2024-03-03T11:11:09.439Z,12.52
2024-03-03T11:12:44.133Z,12.55
2024-03-03T11:14:17.771Z,12.59
2024-03-03T11:15:54.503Z,12.56
2024-03-03T11:17:31.617Z,12.53
2024-03-03T11:19:05.971Z,12.52
2024-03-03T11:20:41.448Z,12.49
2024-03-03T11:22:20.161Z,12.50
2024-03-03T11:24:02.350Z,12.56
2024-03-03T11:25:39.936Z,12.57
2024-03-03T11:27:23.269Z,12.50
2024-03-03T11:28:58.936Z,12.47
2024-03-03T11:30:30.948Z,12.48
2024-03-03T11:32:03.911Z,12.54
2024-03-03T11:33:37.138Z,12.61
2024-03-03T11:35:10.477Z,12.63
2024-03-03T11:36:43.286Z,12.67
2024-03-03T11:38:15.504Z,12.69
2024-03-03T11:40:05.463Z,12.62
2024-03-03T11:41:40.471Z,12.56
2024-03-03T11:43:12.087Z,12.62
2024-03-03T11:44:51.899Z,12.67
2024-03-03T11:46:45.542Z,12.71
2024-03-03T11:48:17.116Z,12.69
2024-03-03T11:49:48.729Z,12.76
2024-03-03T11:51:27.638Z,12.73
2024-03-03T11:52:59.065Z,12.64
2024-03-03T11:54:32.852Z,12.56
2024-03-03T11:56:18.493Z,12.56
2024-03-03T11:57:55.917Z,12.61
2024-03-03T11:59:34.303Z,12.57
2024-03-03T12:01:11.282Z,12.55
2024-03-03T12:02:43.109Z,12.60
2024-03-03T12:04:15.865Z,12.66
2024-03-03T12:05:48.366Z,12.75
2024-03-03T12:07:21.564Z,12.83
2024-03-03T12:08:57.937Z,12.80
2024-03-03T12:10:32.637Z,12.77
2024-03-03T12:12:06.182Z,12.88
2024-03-03T12:13:37.934Z,12.95
2024-03-03T12:15:09.896Z,13.06
2024-03-03T12:16:41.308Z,13.09
2024-03-03T12:18:13.440Z,13.13
2024-03-03T12:19:46.101Z,13.15
2024-03-03T12:21:20.364Z,13.15
2024-03-03T12:22:52.241Z,13.17
2024-03-03T12:24:23.769Z,13.20
2024-03-03T12:25:56.304Z,13.33
2024-03-03T12:27:28.085Z,13.38
2024-03-03T12:29:00.969Z,13.41
2024-03-03T12:30:32.312Z,13.36
2024-03-03T12:32:05.961Z,13.37
2024-03-03T12:33:40.519Z,13.37
2024-03-03T12:35:12.062Z,13.31
2024-03-03T12:36:43.806Z,13.25
2024-03-03T12:38:15.413Z,13.30
2024-03-03T12:39:47.045Z,13.38
2024-03-03T12:41:19.214Z,13.39
2024-03-03T12:42:51.779Z,13.40
2024-03-03T12:44:25.571Z,13.44
2024-03-03T12:45:57.073Z,13.54
2024-03-03T12:47:29.810Z,13.56
2024-03-03T12:49:01.437Z,13.61
2024-03-03T12:50:32.851Z,13.72
2024-03-03T12:52:04.521Z,13.75
2024-03-03T12:53:40.984Z,13.80
2024-03-03T12:55:14.913Z,14.09
2024-03-03T12:56:48.070Z,14.18
2024-03-03T12:58:19.668Z,14.34
2024-03-03T13:01:30.349Z,14.33
2024-03-03T13:03:01.860Z,14.39
2024-03-03T13:04:34.874Z,14.49
2024-03-03T13:06:06.537Z,14.60
2024-03-03T13:07:37.979Z,14.78
2024-03-03T13:09:13.719Z,15.00
2024-03-03T13:10:45.891Z,15.00
2024-03-03T13:12:20.357Z,14.99
2024-03-03T13:13:53.105Z,15.09
2024-03-03T13:15:33.002Z,14.87
2024-03-03T13:17:10.383Z,14.70
2024-03-03T13:18:41.908Z,14.84
2024-03-03T13:20:15.949Z,14.92
2024-03-03T13:22:02.192Z,14.89
2024-03-03T13:23:33.692Z,14.85
2024-03-03T13:25:05.905Z,14.80
2024-03-03T13:26:37.351Z,14.79
2024-03-03T13:28:13.026Z,14.91
2024-03-03T13:29:44.500Z,15.15
2024-03-03T13:31:15.977Z,15.04
2024-03-03T13:32:47.501Z,14.80
2024-03-03T13:34:19.078Z,14.60
2024-03-03T13:35:50.521Z,14.45
2024-03-03T13:37:21.971Z,14.37
2024-03-03T13:38:53.535Z,14.45
2024-03-03T13:40:25.596Z,14.43
2024-03-03T13:41:56.997Z,14.45
2024-03-03T13:43:29.169Z,14.51
2024-03-03T13:45:02.475Z,14.61
2024-03-03T13:46:34.479Z,14.85
2024-03-03T13:48:12.488Z,14.97
2024-03-03T13:49:44.004Z,14.95
2024-03-03T13:51:15.854Z,14.95
2024-03-03T13:52:47.421Z,15.08
2024-03-03T13:54:18.953Z,15.37
2024-03-03T13:55:51.688Z,15.53
2024-03-03T13:57:25.952Z,15.54
2024-03-03T13:58:57.510Z,15.48
2024-03-03T14:00:32.016Z,15.38
2024-03-03T14:02:03.828Z,15.39
2024-03-03T14:03:35.641Z,15.42
2024-03-03T14:05:07.430Z,15.44
2024-03-03T14:06:39.291Z,15.53
2024-03-03T14:08:13.818Z,15.41
2024-03-03T14:09:45.766Z,15.51
2024-03-03T14:11:17.277Z,15.61
2024-03-03T14:12:48.843Z,15.64
2024-03-03T14:14:20.401Z,15.60
2024-03-03T14:15:51.825Z,15.50
2024-03-03T14:17:23.546Z,15.47
2024-03-03T14:19:00.308Z,15.38
2024-03-03T14:20:33.581Z,15.38
2024-03-03T14:22:05.799Z,15.20
2024-03-03T14:23:37.202Z,15.00
2024-03-03T14:25:11.309Z,14.98
2024-03-03T14:26:42.852Z,14.92
2024-03-03T14:28:14.504Z,14.83
2024-03-03T14:29:46.273Z,14.75
2024-03-03T14:31:17.762Z,14.67
2024-03-03T14:32:49.989Z,14.51
2024-03-03T14:34:21.595Z,14.31
2024-03-03T14:35:53.373Z,14.32
2024-03-03T14:37:24.997Z,14.31
2024-03-03T14:38:56.472Z,14.24
2024-03-03T14:40:28.201Z,14.19
2024-03-03T14:42:00.247Z,14.11
2024-03-03T14:43:31.893Z,14.15
2024-03-03T14:45:04.367Z,14.17
2024-03-03T14:46:36.333Z,14.12
2024-03-03T14:48:08.264Z,13.99
2024-03-03T14:49:39.791Z,13.85
2024-03-03T14:51:11.180Z,13.73
2024-03-03T14:52:42.570Z,13.63
2024-03-03T14:54:14.403Z,13.52
2024-03-03T14:55:46.418Z,13.53
2024-03-03T14:57:17.930Z,13.56
2024-03-03T14:58:49.588Z,13.57
2024-03-03T15:00:24.227Z,13.67
2024-03-03T15:01:55.820Z,13.63
2024-03-03T15:03:29.172Z,13.55
2024-03-03T15:05:00.689Z,13.51
2024-03-03T15:06:32.159Z,13.43
2024-03-03T15:08:04.116Z,13.39
2024-03-03T15:09:35.661Z,13.37
2024-03-03T15:11:07.129Z,13.43
2024-03-03T15:12:40.180Z,13.43
2024-03-03T15:14:11.958Z,13.45
2024-03-03T15:15:43.701Z,13.40
2024-03-03T15:17:21.834Z,13.38
2024-03-03T15:18:54.244Z,13.34
2024-03-03T15:20:25.650Z,13.29
2024-03-03T15:21:57.275Z,13.28
2024-03-03T15:23:28.736Z,13.23
2024-03-03T15:25:00.157Z,13.23
2024-03-03T15:26:31.662Z,13.27
2024-03-03T15:28:03.812Z,13.31
2024-03-03T15:29:35.349Z,13.30
2024-03-03T15:31:06.832Z,13.25
2024-03-03T15:32:38.377Z,13.14
2024-03-03T15:34:09.824Z,13.08
2024-03-03T15:35:41.325Z,12.99
2024-03-03T15:37:12.908Z,12.99
2024-03-03T15:38:45.500Z,12.94
2024-03-03T15:40:17.009Z,12.92
2024-03-03T15:41:48.536Z,12.86
2024-03-03T15:43:19.924Z,12.79
2024-03-03T15:44:51.382Z,12.71
2024-03-03T15:46:22.940Z,12.62
2024-03-03T15:47:54.463Z,12.57
2024-03-03T15:49:26.127Z,12.52
2024-03-03T15:50:57.571Z,12.49
2024-03-03T15:52:29.190Z,12.44
2024-03-03T15:54:00.604Z,12.41
2024-03-03T15:55:32.216Z,12.35
2024-03-03T15:57:05.506Z,12.29
2024-03-03T15:58:37.253Z,12.23
2024-03-03T16:00:12.801Z,12.19
2024-03-03T16:01:44.399Z,12.10
2024-03-03T16:03:15.833Z,12.10
2024-03-03T16:04:47.481Z,12.02
2024-03-03T16:06:19.714Z,11.93
2024-03-03T16:07:51.365Z,11.85
2024-03-03T16:09:22.763Z,11.75
2024-03-03T16:10:54.868Z,11.64
2024-03-03T16:12:26.577Z,11.56
2024-03-03T16:13:57.973Z,11.46
2024-03-03T16:15:29.353Z,11.40
2024-03-03T16:17:00.981Z,11.33
2024-03-03T16:18:32.749Z,11.30
2024-03-03T16:20:05.027Z,11.24
2024-03-03T16:21:36.493Z,11.15
2024-03-03T16:23:08.026Z,11.09
2024-03-03T16:24:39.834Z,11.05
2024-03-03T16:26:12.454Z,10.98
2024-03-03T16:27:43.960Z,10.87
2024-03-03T16:29:17.817Z,10.80
2024-03-03T16:30:49.290Z,10.73
2024-03-03T16:32:20.926Z,10.64
2024-03-03T16:33:52.376Z,10.56
2024-03-03T16:35:24.688Z,10.43
2024-03-03T16:36:56.481Z,10.36
2024-03-03T16:38:29.632Z,10.31
2024-03-03T16:40:01.056Z,10.21
2024-03-03T16:41:32.534Z,10.09
2024-03-03T16:43:04.309Z,10.05
2024-03-03T16:44:35.819Z,10.01
2024-03-03T16:46:07.334Z,9.98
2024-03-03T16:47:38.957Z,9.93
2024-03-03T16:49:10.417Z,9.89
2024-03-03T16:50:42.387Z,9.80
2024-03-03T16:52:13.851Z,9.77
2024-03-03T16:53:45.460Z,9.69
2024-03-03T16:55:18.620Z,9.61
2024-03-03T16:56:50.746Z,9.50
2024-03-03T16:58:22.188Z,9.46
2024-03-03T16:59:53.832Z,9.35
2024-03-03T17:01:25.590Z,9.25
2024-03-03T17:02:57.080Z,9.23
2024-03-03T17:04:29.036Z,9.20
2024-03-03T17:06:01.618Z,9.15
2024-03-03T17:07:33.283Z,9.14
2024-03-03T17:09:04.805Z,9.06
2024-03-03T17:10:37.148Z,9.00
2024-03-03T17:12:08.656Z,8.96
2024-03-03T17:13:40.215Z,8.92
2024-03-03T17:15:12.315Z,8.88
2024-03-03T17:16:44.634Z,8.85
2024-03-03T17:18:16.209Z,8.81
2024-03-03T17:19:47.753Z,8.76
2024-03-03T17:21:19.148Z,8.75
2024-03-03T17:22:50.691Z,8.73
2024-03-03T17:24:22.724Z,8.67
2024-03-03T17:25:54.363Z,8.66
2024-03-03T17:27:25.748Z,8.61
2024-03-03T17:28:57.188Z,8.60
2024-03-03T17:30:28.756Z,8.52
2024-03-03T17:32:00.323Z,8.49
2024-03-03T17:33:31.735Z,8.42
2024-03-03T17:35:03.299Z,8.41
2024-03-03T17:36:34.926Z,8.33
2024-03-03T17:38:08.408Z,8.33
2024-03-03T17:39:40.324Z,8.32
2024-03-03T17:41:11.942Z,8.29
2024-03-03T17:42:43.756Z,8.27
2024-03-03T17:44:15.382Z,8.25
2024-03-03T17:45:46.791Z,8.26
2024-03-03T17:47:21.743Z,8.22
2024-03-03T17:48:53.559Z,8.16
2024-03-03T17:50:25.148Z,8.14
2024-03-03T17:51:56.536Z,8.12
2024-03-03T17:53:27.943Z,8.11
2024-03-03T17:54:59.367Z,8.09
2024-03-03T17:56:30.910Z,8.08
2024-03-03T17:58:03.821Z,8.05
2024-03-03T17:59:35.372Z,8.03
2024-03-03T18:01:07.026Z,7.99
2024-03-03T18:02:38.448Z,7.98
2024-03-03T18:04:10.124Z,7.99
2024-03-03T18:05:42.453Z,8.00
2024-03-03T18:07:16.403Z,7.97
2024-03-03T18:08:48.245Z,7.97
2024-03-03T18:10:19.698Z,7.94
2024-03-03T18:11:51.283Z,7.92
2024-03-03T18:13:22.799Z,7.91
2024-03-03T18:14:54.415Z,7.87
2024-03-03T18:16:26.176Z,7.86
2024-03-03T18:17:58.270Z,7.84
2024-03-03T18:19:31.005Z,7.82
2024-03-03T18:21:02.760Z,7.78
2024-03-03T18:22:34.810Z,7.74
2024-03-03T18:24:06.933Z,7.71
2024-03-03T18:25:39.112Z,7.69
2024-03-03T18:27:10.545Z,7.68
2024-03-03T18:28:41.952Z,7.71
2024-03-03T18:30:14.169Z,7.68
2024-03-03T18:31:45.614Z,7.66
2024-03-03T18:33:17.112Z,7.63
2024-03-03T18:34:48.557Z,7.61
2024-03-03T18:36:19.957Z,7.61
2024-03-03T18:37:52.065Z,7.63
2024-03-03T18:39:24.818Z,7.58
2024-03-03T18:40:57.070Z,7.57
2024-03-03T18:42:28.551Z,7.54
2024-03-03T18:44:00.308Z,7.52
2024-03-03T18:45:31.692Z,7.53
2024-03-03T18:47:03.177Z,7.53
2024-03-03T18:48:34.580Z,7.49
2024-03-03T18:50:07.151Z,7.47
2024-03-03T18:51:38.615Z,7.45
2024-03-03T18:53:09.984Z,7.46
2024-03-03T18:54:43.030Z,7.43
2024-03-03T18:56:14.994Z,7.42
2024-03-03T18:57:46.840Z,7.40
2024-03-03T18:59:18.238Z,7.36
2024-03-03T19:00:49.768Z,7.37
2024-03-03T19:02:23.069Z,7.35
2024-03-03T19:03:54.704Z,7.36
2024-03-03T19:05:27.442Z,7.31
2024-03-03T19:07:02.459Z,7.31
2024-03-03T19:08:34.691Z,7.27
2024-03-03T19:10:08.365Z,7.25
2024-03-03T19:11:39.881Z,7.25
2024-03-03T19:13:11.614Z,7.23
2024-03-03T19:14:42.998Z,7.23
2024-03-03T19:16:14.443Z,7.22
2024-03-03T19:17:46.041Z,7.18
2024-03-03T19:19:17.685Z,7.16
2024-03-03T19:20:49.673Z,7.15
2024-03-03T19:22:21.092Z,7.11
2024-03-03T19:23:52.487Z,7.09
2024-03-03T19:25:24.113Z,7.09
2024-03-03T19:26:56.412Z,7.05
2024-03-03T19:28:27.908Z,7.04
2024-03-03T19:30:00.549Z,7.04
2024-03-03T19:31:32.850Z,7.04
2024-03-03T19:33:04.694Z,7.01
2024-03-03T19:34:37.772Z,7.01
2024-03-03T19:36:10.896Z,7.00
2024-03-03T19:37:42.314Z,6.99
2024-03-03T19:39:13.845Z,7.00
2024-03-03T19:40:45.820Z,6.98
2024-03-03T19:42:19.437Z,6.98
2024-03-03T19:43:50.978Z,6.98
2024-03-03T19:45:22.504Z,6.96
2024-03-03T19:46:53.981Z,6.93
2024-03-03T19:48:25.436Z,6.92
2024-03-03T19:49:57.428Z,6.87
2024-03-03T19:51:32.428Z,6.89
2024-03-03T19:53:04.358Z,6.90
2024-03-03T19:54:38.521Z,6.89
2024-03-03T19:56:09.915Z,6.88
2024-03-03T19:57:41.464Z,6.87
2024-03-03T19:59:13.814Z,6.87
2024-03-03T20:00:45.430Z,6.90
2024-03-03T20:02:17.374Z,6.92
2024-03-03T20:03:48.840Z,6.95
2024-03-03T20:05:20.634Z,6.96
2024-03-03T20:06:52.186Z,6.96
2024-03-03T20:08:23.650Z,6.96
2024-03-03T20:09:55.228Z,6.95
2024-03-03T20:11:26.856Z,6.94
2024-03-03T20:12:58.320Z,6.93
2024-03-03T20:14:29.945Z,6.97
2024-03-03T20:16:01.484Z,6.99